sensor_id;sensor_type;location;lat;lon;timestamp;P1;durP1;ratioP1;P2;durP2;ratioP2
23614;SDS011;11985;49.404;7.734;2023-02-23T00:00:05;41.15;;;22.73;;
23614;SDS011;11985;49.404;7.734;2023-02-23T00:05:14;45.22;;;23.83;;
23614;SDS011;11985;49.404;7.734;2023-02-23T00:10:17;46.85;;;21.42;;
23614;SDS011;11985;49.404;7.734;2023-02-23T00:15:20;41.77;;;22.47;;
23614;SDS011;11985;49.404;7.734;2023-02-23T00:20:25;40.95;;;21.83;;
23614;SDS011;11985;49.404;7.734;2023-02-23T00:25:28;44.33;;;22.35;;
23614;SDS011;11985;49.404;7.734;2023-02-23T00:30:30;43.13;;;22.15;;
23614;SDS011;11985;49.404;7.734;2023-02-23T00:35:33;40.15;;;21.80;;
23614;SDS011;11985;49.404;7.734;2023-02-23T00:40:39;42.63;;;21.75;;
23614;SDS011;11985;49.404;7.734;2023-02-23T00:45:42;45.58;;;22.40;;
23614;SDS011;11985;49.404;7.734;2023-02-23T00:50:44;47.67;;;22.83;;
23614;SDS011;11985;49.404;7.734;2023-02-23T00:55:51;45.80;;;22.00;;
23614;SDS011;11985;49.404;7.734;2023-02-23T01:00:52;44.22;;;22.58;;
23614;SDS011;11985;49.404;7.734;2023-02-23T01:05:57;39.08;;;21.10;;
23614;SDS011;11985;49.404;7.734;2023-02-23T01:11:05;39.33;;;22.10;;
23614;SDS011;11985;49.404;7.734;2023-02-23T01:16:09;48.33;;;22.25;;
23614;SDS011;11985;49.404;7.734;2023-02-23T01:21:13;38.38;;;21.25;;
23614;SDS011;11985;49.404;7.734;2023-02-23T01:26:18;42.90;;;21.20;;
23614;SDS011;11985;49.404;7.734;2023-02-23T01:31:20;41.13;;;21.13;;
23614;SDS011;11985;49.404;7.734;2023-02-23T01:36:23;39.22;;;21.13;;
23614;SDS011;11985;49.404;7.734;2023-02-23T01:41:28;40.33;;;20.10;;
23614;SDS011;11985;49.404;7.734;2023-02-23T01:46:32;41.03;;;19.65;;
23614;SDS011;11985;49.404;7.734;2023-02-23T01:51:38;37.53;;;19.02;;
23614;SDS011;11985;49.404;7.734;2023-02-23T02:01:48;30.30;;;17.33;;
23614;SDS011;11985;49.404;7.734;2023-02-23T02:06:50;37.08;;;18.13;;
23614;SDS011;11985;49.404;7.734;2023-02-23T02:11:57;30.45;;;17.00;;
23614;SDS011;11985;49.404;7.734;2023-02-23T02:22:39;30.27;;;16.42;;
23614;SDS011;11985;49.404;7.734;2023-02-23T02:33:34;32.22;;;15.95;;
23614;SDS011;11985;49.404;7.734;2023-02-23T02:38:54;33.28;;;17.42;;
23614;SDS011;11985;49.404;7.734;2023-02-23T02:44:09;31.13;;;16.95;;
23614;SDS011;11985;49.404;7.734;2023-02-23T02:49:17;31.50;;;16.65;;
23614;SDS011;11985;49.404;7.734;2023-02-23T02:54:25;33.38;;;17.95;;
23614;SDS011;11985;49.404;7.734;2023-02-23T02:59:31;37.40;;;18.48;;
23614;SDS011;11985;49.404;7.734;2023-02-23T03:05:00;31.58;;;17.42;;
23614;SDS011;11985;49.404;7.734;2023-02-23T03:10:22;34.83;;;18.10;;
23614;SDS011;11985;49.404;7.734;2023-02-23T03:15:54;34.53;;;18.77;;
23614;SDS011;11985;49.404;7.734;2023-02-23T03:21:19;38.00;;;19.10;;
23614;SDS011;11985;49.404;7.734;2023-02-23T03:32:11;29.35;;;16.40;;
23614;SDS011;11985;49.404;7.734;2023-02-23T03:37:40;37.75;;;18.52;;
23614;SDS011;11985;49.404;7.734;2023-02-23T03:43:05;40.83;;;19.63;;
23614;SDS011;11985;49.404;7.734;2023-02-23T03:48:28;40.90;;;20.95;;
23614;SDS011;11985;49.404;7.734;2023-02-23T03:53:50;46.00;;;21.55;;
23614;SDS011;11985;49.404;7.734;2023-02-23T03:59:15;38.42;;;20.70;;
23614;SDS011;11985;49.404;7.734;2023-02-23T04:09:58;43.55;;;22.67;;
23614;SDS011;11985;49.404;7.734;2023-02-23T04:15:20;40.50;;;21.50;;
23614;SDS011;11985;49.404;7.734;2023-02-23T04:20:26;50.75;;;24.10;;
23614;SDS011;11985;49.404;7.734;2023-02-23T04:25:28;50.88;;;24.90;;
23614;SDS011;11985;49.404;7.734;2023-02-23T04:30:32;58.97;;;23.70;;
23614;SDS011;11985;49.404;7.734;2023-02-23T04:35:33;56.67;;;26.75;;
23614;SDS011;11985;49.404;7.734;2023-02-23T04:40:35;54.10;;;25.00;;
23614;SDS011;11985;49.404;7.734;2023-02-23T04:45:38;73.55;;;28.02;;
23614;SDS011;11985;49.404;7.734;2023-02-23T04:50:40;68.22;;;24.63;;
23614;SDS011;11985;49.404;7.734;2023-02-23T04:55:41;69.90;;;28.58;;
23614;SDS011;11985;49.404;7.734;2023-02-23T05:00:45;65.75;;;28.25;;
23614;SDS011;11985;49.404;7.734;2023-02-23T05:05:47;60.78;;;25.55;;
23614;SDS011;11985;49.404;7.734;2023-02-23T05:10:48;55.80;;;26.08;;
23614;SDS011;11985;49.404;7.734;2023-02-23T05:15:54;53.58;;;27.05;;
23614;SDS011;11985;49.404;7.734;2023-02-23T05:21:00;51.67;;;24.63;;
23614;SDS011;11985;49.404;7.734;2023-02-23T05:26:03;47.33;;;23.98;;
23614;SDS011;11985;49.404;7.734;2023-02-23T05:31:08;47.85;;;24.33;;
23614;SDS011;11985;49.404;7.734;2023-02-23T05:36:11;48.40;;;23.98;;
23614;SDS011;11985;49.404;7.734;2023-02-23T05:41:16;48.42;;;23.00;;
23614;SDS011;11985;49.404;7.734;2023-02-23T05:46:21;42.58;;;23.13;;
23614;SDS011;11985;49.404;7.734;2023-02-23T05:51:25;44.40;;;22.48;;
23614;SDS011;11985;49.404;7.734;2023-02-23T05:56:28;39.85;;;20.80;;
23614;SDS011;11985;49.404;7.734;2023-02-23T06:01:31;35.53;;;19.10;;
23614;SDS011;11985;49.404;7.734;2023-02-23T06:06:32;39.45;;;19.92;;
23614;SDS011;11985;49.404;7.734;2023-02-23T06:11:34;40.80;;;21.52;;
23614;SDS011;11985;49.404;7.734;2023-02-23T06:16:37;40.92;;;20.95;;
23614;SDS011;11985;49.404;7.734;2023-02-23T06:21:39;38.97;;;20.35;;
23614;SDS011;11985;49.404;7.734;2023-02-23T06:26:41;42.50;;;20.70;;
23614;SDS011;11985;49.404;7.734;2023-02-23T06:31:44;39.10;;;20.85;;
23614;SDS011;11985;49.404;7.734;2023-02-23T06:36:45;37.97;;;19.92;;
23614;SDS011;11985;49.404;7.734;2023-02-23T06:41:47;41.30;;;20.90;;
23614;SDS011;11985;49.404;7.734;2023-02-23T06:46:50;38.95;;;20.27;;
23614;SDS011;11985;49.404;7.734;2023-02-23T06:51:52;43.63;;;21.08;;
23614;SDS011;11985;49.404;7.734;2023-02-23T06:56:54;49.67;;;21.60;;
23614;SDS011;11985;49.404;7.734;2023-02-23T07:01:57;45.90;;;23.58;;
23614;SDS011;11985;49.404;7.734;2023-02-23T07:06:59;52.22;;;24.27;;
23614;SDS011;11985;49.404;7.734;2023-02-23T07:12:02;57.50;;;25.23;;
23614;SDS011;11985;49.404;7.734;2023-02-23T07:17:05;52.42;;;25.17;;
23614;SDS011;11985;49.404;7.734;2023-02-23T07:22:07;46.30;;;23.70;;
23614;SDS011;11985;49.404;7.734;2023-02-23T07:27:09;53.08;;;26.02;;
23614;SDS011;11985;49.404;7.734;2023-02-23T07:32:12;52.85;;;25.85;;
23614;SDS011;11985;49.404;7.734;2023-02-23T07:37:14;56.80;;;26.50;;
23614;SDS011;11985;49.404;7.734;2023-02-23T07:42:17;63.08;;;28.98;;
23614;SDS011;11985;49.404;7.734;2023-02-23T07:47:20;62.97;;;29.40;;
23614;SDS011;11985;49.404;7.734;2023-02-23T07:52:22;68.53;;;30.48;;
23614;SDS011;11985;49.404;7.734;2023-02-23T07:57:23;70.22;;;31.42;;
23614;SDS011;11985;49.404;7.734;2023-02-23T08:02:27;64.93;;;29.58;;
23614;SDS011;11985;49.404;7.734;2023-02-23T08:07:30;61.58;;;29.73;;
23614;SDS011;11985;49.404;7.734;2023-02-23T08:12:32;59.53;;;28.58;;
23614;SDS011;11985;49.404;7.734;2023-02-23T08:17:35;65.10;;;29.35;;
23614;SDS011;11985;49.404;7.734;2023-02-23T08:22:37;65.93;;;29.67;;
23614;SDS011;11985;49.404;7.734;2023-02-23T08:27:39;62.10;;;28.25;;
23614;SDS011;11985;49.404;7.734;2023-02-23T08:32:42;60.22;;;27.48;;
23614;SDS011;11985;49.404;7.734;2023-02-23T08:37:43;65.35;;;30.65;;
23614;SDS011;11985;49.404;7.734;2023-02-23T08:42:45;59.25;;;29.08;;
23614;SDS011;11985;49.404;7.734;2023-02-23T08:47:49;67.95;;;30.65;;
23614;SDS011;11985;49.404;7.734;2023-02-23T08:52:51;64.28;;;29.55;;
23614;SDS011;11985;49.404;7.734;2023-02-23T08:57:53;68.28;;;30.67;;
23614;SDS011;11985;49.404;7.734;2023-02-23T09:02:56;56.85;;;30.35;;
23614;SDS011;11985;49.404;7.734;2023-02-23T09:07:58;55.95;;;27.83;;
23614;SDS011;11985;49.404;7.734;2023-02-23T09:12:59;49.13;;;26.23;;
23614;SDS011;11985;49.404;7.734;2023-02-23T09:18:03;49.85;;;25.50;;
23614;SDS011;11985;49.404;7.734;2023-02-23T09:23:05;45.20;;;25.93;;
23614;SDS011;11985;49.404;7.734;2023-02-23T09:28:08;45.28;;;23.75;;
23614;SDS011;11985;49.404;7.734;2023-02-23T09:33:12;50.20;;;23.73;;
23614;SDS011;11985;49.404;7.734;2023-02-23T09:38:14;43.15;;;22.15;;
23614;SDS011;11985;49.404;7.734;2023-02-23T09:43:17;36.40;;;20.45;;
23614;SDS011;11985;49.404;7.734;2023-02-23T09:48:25;36.25;;;19.75;;
23614;SDS011;11985;49.404;7.734;2023-02-23T09:53:33;37.15;;;19.45;;
23614;SDS011;11985;49.404;7.734;2023-02-23T09:58:38;36.00;;;19.90;;
23614;SDS011;11985;49.404;7.734;2023-02-23T10:03:42;43.90;;;23.80;;
23614;SDS011;11985;49.404;7.734;2023-02-23T10:09:00;36.70;;;21.08;;
23614;SDS011;11985;49.404;7.734;2023-02-23T10:14:19;39.20;;;21.52;;
23614;SDS011;11985;49.404;7.734;2023-02-23T10:19:33;41.00;;;21.00;;
23614;SDS011;11985;49.404;7.734;2023-02-23T10:24:42;39.00;;;21.15;;
23614;SDS011;11985;49.404;7.734;2023-02-23T10:29:48;37.55;;;20.98;;
23614;SDS011;11985;49.404;7.734;2023-02-23T10:34:53;37.65;;;20.80;;
23614;SDS011;11985;49.404;7.734;2023-02-23T10:44:58;39.95;;;20.42;;
23614;SDS011;11985;49.404;7.734;2023-02-23T10:50:01;36.75;;;20.05;;
23614;SDS011;11985;49.404;7.734;2023-02-23T10:55:06;38.13;;;21.27;;
23614;SDS011;11985;49.404;7.734;2023-02-23T11:00:25;35.90;;;21.58;;
23614;SDS011;11985;49.404;7.734;2023-02-23T11:05:35;37.33;;;22.45;;
23614;SDS011;11985;49.404;7.734;2023-02-23T11:10:43;35.33;;;21.02;;
23614;SDS011;11985;49.404;7.734;2023-02-23T11:15:57;32.40;;;20.25;;
23614;SDS011;11985;49.404;7.734;2023-02-23T11:21:02;39.33;;;22.60;;
23614;SDS011;11985;49.404;7.734;2023-02-23T11:26:18;31.67;;;19.95;;
23614;SDS011;11985;49.404;7.734;2023-02-23T11:31:28;32.80;;;19.48;;
23614;SDS011;11985;49.404;7.734;2023-02-23T11:36:35;36.08;;;21.70;;
23614;SDS011;11985;49.404;7.734;2023-02-23T11:41:37;37.00;;;21.97;;
23614;SDS011;11985;49.404;7.734;2023-02-23T11:46:39;45.85;;;21.95;;
23614;SDS011;11985;49.404;7.734;2023-02-23T11:51:47;39.60;;;22.45;;
23614;SDS011;11985;49.404;7.734;2023-02-23T11:56:50;37.65;;;21.95;;
23614;SDS011;11985;49.404;7.734;2023-02-23T12:01:55;35.28;;;22.10;;
23614;SDS011;11985;49.404;7.734;2023-02-23T12:07:18;36.97;;;22.15;;
23614;SDS011;11985;49.404;7.734;2023-02-23T12:12:26;36.58;;;22.05;;
23614;SDS011;11985;49.404;7.734;2023-02-23T12:22:38;47.83;;;25.58;;
23614;SDS011;11985;49.404;7.734;2023-02-23T12:27:45;43.83;;;23.60;;
23614;SDS011;11985;49.404;7.734;2023-02-23T12:32:54;44.08;;;22.80;;
23614;SDS011;11985;49.404;7.734;2023-02-23T12:38:01;38.13;;;21.95;;
23614;SDS011;11985;49.404;7.734;2023-02-23T12:43:10;39.85;;;22.08;;
23614;SDS011;11985;49.404;7.734;2023-02-23T12:48:17;47.00;;;21.38;;
23614;SDS011;11985;49.404;7.734;2023-02-23T12:53:33;81.05;;;22.08;;
23614;SDS011;11985;49.404;7.734;2023-02-23T12:58:39;31.55;;;18.58;;
23614;SDS011;11985;49.404;7.734;2023-02-23T13:03:50;31.90;;;17.70;;
23614;SDS011;11985;49.404;7.734;2023-02-23T13:09:19;36.25;;;20.00;;
23614;SDS011;11985;49.404;7.734;2023-02-23T13:14:31;35.30;;;19.98;;
23614;SDS011;11985;49.404;7.734;2023-02-23T13:19:44;32.90;;;16.35;;
23614;SDS011;11985;49.404;7.734;2023-02-23T13:24:54;31.98;;;16.48;;
23614;SDS011;11985;49.404;7.734;2023-02-23T13:29:59;26.70;;;14.07;;
23614;SDS011;11985;49.404;7.734;2023-02-23T13:35:01;27.23;;;14.32;;
23614;SDS011;11985;49.404;7.734;2023-02-23T13:40:13;24.35;;;13.30;;
23614;SDS011;11985;49.404;7.734;2023-02-23T13:50:59;25.27;;;11.10;;
23614;SDS011;11985;49.404;7.734;2023-02-23T13:56:13;20.27;;;10.38;;
23614;SDS011;11985;49.404;7.734;2023-02-23T14:01:25;18.45;;;9.85;;
23614;SDS011;11985;49.404;7.734;2023-02-23T14:06:30;19.63;;;10.77;;
23614;SDS011;11985;49.404;7.734;2023-02-23T14:11:43;23.27;;;10.80;;
23614;SDS011;11985;49.404;7.734;2023-02-23T14:22:38;21.67;;;11.13;;
23614;SDS011;11985;49.404;7.734;2023-02-23T14:28:25;19.85;;;10.30;;
23614;SDS011;11985;49.404;7.734;2023-02-23T14:33:35;17.00;;;8.98;;
23614;SDS011;11985;49.404;7.734;2023-02-23T14:38:49;14.45;;;8.32;;
23614;SDS011;11985;49.404;7.734;2023-02-23T14:44:00;19.40;;;10.90;;
23614;SDS011;11985;49.404;7.734;2023-02-23T14:49:07;19.90;;;8.85;;
23614;SDS011;11985;49.404;7.734;2023-02-23T14:54:21;17.23;;;9.57;;
23614;SDS011;11985;49.404;7.734;2023-02-23T14:59:26;19.42;;;9.73;;
23614;SDS011;11985;49.404;7.734;2023-02-23T15:04:32;17.58;;;10.38;;
23614;SDS011;11985;49.404;7.734;2023-02-23T15:09:38;31.42;;;20.45;;
23614;SDS011;11985;49.404;7.734;2023-02-23T15:14:43;12.20;;;7.07;;
23614;SDS011;11985;49.404;7.734;2023-02-23T15:19:46;15.90;;;9.23;;
23614;SDS011;11985;49.404;7.734;2023-02-23T15:24:54;13.57;;;7.40;;
23614;SDS011;11985;49.404;7.734;2023-02-23T15:30:00;14.25;;;8.05;;
23614;SDS011;11985;49.404;7.734;2023-02-23T15:35:17;16.83;;;9.30;;
23614;SDS011;11985;49.404;7.734;2023-02-23T15:40:19;16.58;;;9.15;;
23614;SDS011;11985;49.404;7.734;2023-02-23T15:45:26;22.92;;;11.82;;
23614;SDS011;11985;49.404;7.734;2023-02-23T15:50:33;21.52;;;10.07;;
23614;SDS011;11985;49.404;7.734;2023-02-23T15:55:42;17.52;;;9.77;;
23614;SDS011;11985;49.404;7.734;2023-02-23T16:00:48;22.88;;;10.82;;
23614;SDS011;11985;49.404;7.734;2023-02-23T16:05:58;18.13;;;9.65;;
23614;SDS011;11985;49.404;7.734;2023-02-23T16:11:08;19.88;;;9.73;;
23614;SDS011;11985;49.404;7.734;2023-02-23T16:16:14;14.23;;;8.30;;
23614;SDS011;11985;49.404;7.734;2023-02-23T16:21:19;13.32;;;7.35;;
23614;SDS011;11985;49.404;7.734;2023-02-23T16:26:25;13.15;;;7.28;;
23614;SDS011;11985;49.404;7.734;2023-02-23T16:31:40;11.30;;;7.20;;
23614;SDS011;11985;49.404;7.734;2023-02-23T16:36:43;12.32;;;6.82;;
23614;SDS011;11985;49.404;7.734;2023-02-23T16:41:49;12.15;;;6.80;;
23614;SDS011;11985;49.404;7.734;2023-02-23T16:47:10;14.45;;;6.72;;
23614;SDS011;11985;49.404;7.734;2023-02-23T16:52:29;10.52;;;6.10;;
23614;SDS011;11985;49.404;7.734;2023-02-23T16:57:33;9.18;;;6.07;;
23614;SDS011;11985;49.404;7.734;2023-02-23T17:02:41;11.60;;;6.30;;
23614;SDS011;11985;49.404;7.734;2023-02-23T17:07:43;11.95;;;6.72;;
23614;SDS011;11985;49.404;7.734;2023-02-23T17:12:45;13.88;;;6.55;;
23614;SDS011;11985;49.404;7.734;2023-02-23T17:17:50;13.10;;;6.13;;
23614;SDS011;11985;49.404;7.734;2023-02-23T17:22:56;9.48;;;5.78;;
23614;SDS011;11985;49.404;7.734;2023-02-23T17:27:59;9.75;;;5.93;;
23614;SDS011;11985;49.404;7.734;2023-02-23T17:33:03;12.48;;;6.82;;
23614;SDS011;11985;49.404;7.734;2023-02-23T17:38:06;20.27;;;8.88;;
23614;SDS011;11985;49.404;7.734;2023-02-23T17:43:08;17.00;;;9.27;;
23614;SDS011;11985;49.404;7.734;2023-02-23T17:48:11;12.48;;;8.00;;
23614;SDS011;11985;49.404;7.734;2023-02-23T17:53:12;11.75;;;5.90;;
23614;SDS011;11985;49.404;7.734;2023-02-23T17:58:14;8.10;;;4.90;;
23614;SDS011;11985;49.404;7.734;2023-02-23T18:03:18;9.23;;;5.20;;
23614;SDS011;11985;49.404;7.734;2023-02-23T18:08:19;12.65;;;6.57;;
23614;SDS011;11985;49.404;7.734;2023-02-23T18:13:20;11.85;;;6.53;;
23614;SDS011;11985;49.404;7.734;2023-02-23T18:18:24;10.25;;;5.15;;
23614;SDS011;11985;49.404;7.734;2023-02-23T18:23:27;10.75;;;5.10;;
23614;SDS011;11985;49.404;7.734;2023-02-23T18:28:31;13.30;;;5.22;;
23614;SDS011;11985;49.404;7.734;2023-02-23T18:33:34;8.43;;;4.40;;
23614;SDS011;11985;49.404;7.734;2023-02-23T18:38:36;8.43;;;4.88;;
23614;SDS011;11985;49.404;7.734;2023-02-23T18:43:37;12.02;;;5.47;;
23614;SDS011;11985;49.404;7.734;2023-02-23T18:48:41;8.68;;;4.90;;
23614;SDS011;11985;49.404;7.734;2023-02-23T18:53:43;8.90;;;5.18;;
23614;SDS011;11985;49.404;7.734;2023-02-23T18:58:44;9.15;;;5.70;;
23614;SDS011;11985;49.404;7.734;2023-02-23T19:03:47;10.07;;;5.95;;
23614;SDS011;11985;49.404;7.734;2023-02-23T19:08:50;13.13;;;7.20;;
23614;SDS011;11985;49.404;7.734;2023-02-23T19:13:53;10.70;;;6.10;;
23614;SDS011;11985;49.404;7.734;2023-02-23T19:18:58;11.25;;;6.35;;
23614;SDS011;11985;49.404;7.734;2023-02-23T19:24:00;15.35;;;7.35;;
23614;SDS011;11985;49.404;7.734;2023-02-23T19:29:07;12.60;;;7.55;;
23614;SDS011;11985;49.404;7.734;2023-02-23T19:34:11;14.13;;;6.90;;
23614;SDS011;11985;49.404;7.734;2023-02-23T19:39:14;13.63;;;7.57;;
23614;SDS011;11985;49.404;7.734;2023-02-23T19:44:15;16.40;;;8.27;;
23614;SDS011;11985;49.404;7.734;2023-02-23T19:49:18;12.25;;;7.85;;
23614;SDS011;11985;49.404;7.734;2023-02-23T19:54:20;13.00;;;8.50;;
23614;SDS011;11985;49.404;7.734;2023-02-23T19:59:25;15.60;;;8.90;;
23614;SDS011;11985;49.404;7.734;2023-02-23T20:04:28;17.55;;;7.88;;
23614;SDS011;11985;49.404;7.734;2023-02-23T20:09:30;13.05;;;8.15;;
23614;SDS011;11985;49.404;7.734;2023-02-23T20:14:31;12.93;;;7.57;;
23614;SDS011;11985;49.404;7.734;2023-02-23T20:19:35;14.88;;;9.25;;
23614;SDS011;11985;49.404;7.734;2023-02-23T20:24:37;21.25;;;10.95;;
23614;SDS011;11985;49.404;7.734;2023-02-23T20:29:38;18.92;;;10.20;;
23614;SDS011;11985;49.404;7.734;2023-02-23T20:34:41;16.27;;;9.55;;
23614;SDS011;11985;49.404;7.734;2023-02-23T20:39:44;18.38;;;9.95;;
23614;SDS011;11985;49.404;7.734;2023-02-23T20:44:46;22.73;;;10.95;;
23614;SDS011;11985;49.404;7.734;2023-02-23T20:49:49;18.38;;;10.50;;
23614;SDS011;11985;49.404;7.734;2023-02-23T20:54:50;20.77;;;11.65;;
23614;SDS011;11985;49.404;7.734;2023-02-23T20:59:52;26.33;;;12.27;;
23614;SDS011;11985;49.404;7.734;2023-02-23T21:04:54;19.33;;;11.43;;
23614;SDS011;11985;49.404;7.734;2023-02-23T21:09:57;20.20;;;10.73;;
23614;SDS011;11985;49.404;7.734;2023-02-23T21:15:00;22.70;;;12.45;;
23614;SDS011;11985;49.404;7.734;2023-02-23T21:20:05;23.25;;;12.95;;
23614;SDS011;11985;49.404;7.734;2023-02-23T21:25:10;24.17;;;13.70;;
23614;SDS011;11985;49.404;7.734;2023-02-23T21:30:12;28.90;;;14.93;;
23614;SDS011;11985;49.404;7.734;2023-02-23T21:35:19;25.92;;;13.95;;
23614;SDS011;11985;49.404;7.734;2023-02-23T21:40:21;25.95;;;13.57;;
23614;SDS011;11985;49.404;7.734;2023-02-23T21:45:23;28.90;;;13.85;;
23614;SDS011;11985;49.404;7.734;2023-02-23T21:50:26;24.85;;;14.57;;
23614;SDS011;11985;49.404;7.734;2023-02-23T21:55:28;24.83;;;13.52;;
23614;SDS011;11985;49.404;7.734;2023-02-23T22:00:29;24.23;;;14.18;;
23614;SDS011;11985;49.404;7.734;2023-02-23T22:05:34;30.08;;;14.57;;
23614;SDS011;11985;49.404;7.734;2023-02-23T22:10:35;25.50;;;14.48;;
23614;SDS011;11985;49.404;7.734;2023-02-23T22:15:37;28.38;;;15.93;;
23614;SDS011;11985;49.404;7.734;2023-02-23T22:20:40;25.60;;;14.52;;
23614;SDS011;11985;49.404;7.734;2023-02-23T22:25:44;31.58;;;16.55;;
23614;SDS011;11985;49.404;7.734;2023-02-23T22:30:45;28.00;;;16.38;;
23614;SDS011;11985;49.404;7.734;2023-02-23T22:35:51;33.13;;;15.80;;
23614;SDS011;11985;49.404;7.734;2023-02-23T22:40:52;24.23;;;13.88;;
23614;SDS011;11985;49.404;7.734;2023-02-23T22:45:54;30.48;;;15.73;;
23614;SDS011;11985;49.404;7.734;2023-02-23T22:50:58;33.15;;;17.10;;
23614;SDS011;11985;49.404;7.734;2023-02-23T22:56:00;31.73;;;16.00;;
23614;SDS011;11985;49.404;7.734;2023-02-23T23:01:03;32.33;;;16.50;;
23614;SDS011;11985;49.404;7.734;2023-02-23T23:06:07;36.40;;;18.63;;
23614;SDS011;11985;49.404;7.734;2023-02-23T23:11:11;46.25;;;20.05;;
23614;SDS011;11985;49.404;7.734;2023-02-23T23:16:15;48.15;;;21.55;;
23614;SDS011;11985;49.404;7.734;2023-02-23T23:21:20;53.75;;;23.85;;
23614;SDS011;11985;49.404;7.734;2023-02-23T23:31:26;61.38;;;24.15;;
23614;SDS011;11985;49.404;7.734;2023-02-23T23:36:32;60.03;;;25.37;;
23614;SDS011;11985;49.404;7.734;2023-02-23T23:41:37;69.75;;;27.40;;
23614;SDS011;11985;49.404;7.734;2023-02-23T23:46:42;67.68;;;25.73;;
23614;SDS011;11985;49.404;7.734;2023-02-23T23:51:47;64.68;;;26.50;;
23614;SDS011;11985;49.404;7.734;2023-02-23T23:56:50;67.38;;;27.42;;
